Dublin, Ireland

11:42 PM GMT on March 03, 2015 (GMT +0000)
Dublin International | Change Station
CLOSE
Current Station
Airport
Location: Dublin,
Elevation: 279 ft
Nearby Weather Stations

Elev 279 ft 53.42 °N, 6.30 °W | Updated 12 minutes ago

Partly Cloudy
Partly Cloudy
36 °F
Feels Like 24 °F
N
21
Wind Variable Wind from WSW

Today
High -- | Low -- °F
--% Chance of Precip.
Yesterday
High -- | Low -- °F
Precip. -- in
7:09 AM 6:06 PM
Waxing Gibbous, 97% visible
Pressure 30.12 in
Visibility 6.2 miles
Clouds Few 1500 ft
Few 1900 ft
Windchill 24 °F
Dew Point 32 °F
Humidity 87%
Rainfall 0.00 in
Snow Depth Not available.
UV 0 out of 12
Pollen Not available.
Air Quality Not available.
Flu Activity Not available.
METAR EIDW 032330Z 24018KT 9999 FEW015 FEW019CB 02/M00 Q1020 NOSIG

More Conditions Fewer Conditions

Pressure 30.12 in
Visibility 6.2 miles
Clouds Few 1500 ft
Few 1900 ft
Windchill 24 °F
Dew Point 32 °F
Humidity 87%
Rainfall 0.00 in
Snow Depth Not available.
UV 0 out of 12
Pollen Not available.
Air Quality Not available.
Flu Activity Not available.
METAR EIDW 032330Z 24018KT 9999 FEW015 FEW019CB 02/M00 Q1020 NOSIG

More Conditions Fewer Conditions

10-Day Weather Forecast

Almanac

Astronomy

Mar. 03, 2015 Rise Set
Actual Time
Civil Twilight
Nautical Twilight
Astronomical Twilight
Moon
Length of Visible Light
Length of Day
Tomorrow will be .
, % of the Moon is Illuminated

Today's Extremes

Country Highs Country Lows

Community

WunderPhotos

Upload Photos

1,802,305 photos uploaded!

WunderBlogs® & News

Nearby

Air Quality

  Air Quality AQ Index Pollutant
Not available.

Snow Depth

Station Depth Elevation

Earthquake Activity

City Distance Mag. Time & Date
Minimum magnitude displayed is 2.5.

Coastal Water Temperatures

Place Temperature

Nearby Weather Stations